F/V Harvestor — WDC8229 — position and weather

sailwx.info

Track history (hours):
 
Tides and Currents Weather Stations Pressure Air Temp Water Temp Dewpoint Dewpoint Depression Visibility Wind Speed Wind Dir Waves Ship Positions

F/V Harvestor

Owner: F/V HARVESTOR INC., EDMONDS, WA. More information available from US FCC via Universal Licensing System and Coast Guard Vessel Documentation Center.

Last reported at 2016-Sep-27 00:33 UTC. Time now 2016-Sep-27 01:58 UTC.
Position N 48°13' W 123°02'.

Length 40 m.

Type: Fishing. MMSI: 367083650.

Date/timePositionNaut miles runAvg speedWind from/ knotsBaromVisibWave heightAir tempDewpointWater temp
2016-Sep-27 00:33N 48°13' W 123°02'30 7.6
2016-Sep-26 20:34N 47°53' W 122°28'8 8.1
2016-Sep-26 19:33N 47°45' W 122°26'7 1.8
2016-Sep-26 15:33N 47°38' W 122°23'0 0.0
2016-Sep-26 13:34N 47°38' W 122°23'0 0.0
2016-Sep-26 11:34N 47°38' W 122°23'0 0.0
2016-Sep-26 08:34N 47°38' W 122°23'0 0.0
2016-Sep-26 02:34N 47°38' W 122°23'0 0.0
2016-Sep-26 01:34N 47°38' W 122°23'6 5.7
2016-Sep-26 00:34N 47°43' W 122°28'22 7.4
2016-Sep-25 21:33N 48°04' W 122°39'31 7.7
2016-Sep-25 17:34N 48°08' W 123°25'0 0.0
2016-Sep-25 16:34N 48°08' W 123°25'0 0.0
2016-Sep-25 15:34N 48°08' W 123°25'0 0.0
2016-Sep-25 14:34N 48°08' W 123°25'0 0.0
2016-Sep-25 12:34N 48°08' W 123°25'0 0.0
2016-Sep-25 11:33N 48°08' W 123°25'0 0.0
2016-Sep-25 10:34N 48°08' W 123°25'0 0.0
2016-Sep-25 09:34N 48°08' W 123°25'0 0.0
2016-Sep-25 07:34N 48°08' W 123°25'0 0.0
2016-Sep-25 04:34N 48°08' W 123°25'17 4.2
2016-Sep-25 00:33N 48°12' W 123°01'18 9.0
2016-Sep-24 22:33N 48°03' W 122°38'9 9.4
2016-Sep-24 21:34N 47°56' W 122°29'18 8.9
2016-Sep-24 19:34N 47°38' W 122°25'1 1.4
2016-Sep-24 18:33N 47°38' W 122°23'0 0.0
2016-Sep-24 17:33N 47°38' W 122°23'0 0.0
2016-Sep-24 16:34N 47°38' W 122°23'0 0.0
2016-Sep-24 14:34N 47°38' W 122°23'0 0.0
2016-Sep-24 12:33N 47°38' W 122°23'0 0.0
2016-Sep-24 10:33N 47°38' W 122°23'0 0.0
2016-Sep-24 09:33N 47°38' W 122°23'0 0.0
2016-Sep-24 03:34N 47°38' W 122°23'0 0.0
2016-Sep-24 02:33N 47°38' W 122°23'0 0.0
2016-Sep-24 01:33N 47°38' W 122°23'0 0.0
2016-Sep-24 00:34N 47°38' W 122°23'0 0.0
2016-Sep-23 19:33N 47°38' W 122°23'0 0.0
2016-Sep-23 17:33N 47°38' W 122°23'0 0.1
2016-Sep-23 16:33N 47°38' W 122°23'0 0.0
2016-Sep-23 15:33N 47°38' W 122°23'0 0.0
2016-Sep-23 13:34N 47°38' W 122°23'0 0.0
2016-Sep-23 09:34N 47°38' W 122°23'0 0.0
2016-Sep-23 06:34N 47°38' W 122°23'0 0.0
2016-Sep-23 04:34N 47°38' W 122°23'0 0.0
2016-Sep-23 03:33N 47°38' W 122°23'0 0.0
2016-Sep-23 02:34N 47°38' W 122°23'0 0.0
2016-Sep-23 01:33N 47°38' W 122°23'7 6.8
2016-Sep-23 00:34N 47°34' W 122°32'0 0.3
2016-Sep-22 23:34N 47°35' W 122°32'0 0.0
2016-Sep-22 20:34N 47°35' W 122°32'0 0.0
2016-Sep-22 12:34N 47°35' W 122°32'0 0.0
2016-Sep-22 04:34N 47°35' W 122°32'0 0.0
2016-Sep-22 03:33N 47°35' W 122°32'0 0.0
2016-Sep-22 00:34N 47°35' W 122°32'0 0.0
2016-Sep-21 23:34N 47°35' W 122°32'0 0.1
2016-Sep-21 22:34N 47°35' W 122°32'21 7.1
2016-Sep-21 19:33N 47°13' W 122°35'21 0.8
2016-Sep-20 17:34N 47°35' W 122°32'0 0.0
2016-Sep-20 14:34N 47°35' W 122°32'0 0.0
2016-Sep-20 13:34N 47°35' W 122°32'0 0.0
2016-Sep-20 10:34N 47°35' W 122°32'0 0.0
2016-Sep-20 08:33N 47°35' W 122°32'0 0.0
2016-Sep-20 07:34N 47°35' W 122°32'0 0.0
2016-Sep-20 06:34N 47°35' W 122°32'0 0.0
2016-Sep-20 02:34N 47°35' W 122°32'20 6.8
2016-Sep-19 23:34N 47°14' W 122°35'10 0.5
2016-Sep-19 00:25N 47°11' W 122°49'27 5.5
2016-Sep-18 19:33N 47°35' W 122°32'0 0.0
2016-Sep-18 15:33N 47°35' W 122°32'0 0.0
2016-Sep-18 14:33N 47°35' W 122°32'0 0.0
2016-Sep-18 10:33N 47°35' W 122°32'0 0.0
2016-Sep-18 09:33N 47°35' W 122°32'0 0.0
2016-Sep-18 02:33N 47°35' W 122°32'0 0.0
2016-Sep-18 01:33N 47°35' W 122°32'0 0.0
2016-Sep-18 00:33N 47°35' W 122°32'0 0.0
2016-Sep-17 22:33N 47°35' W 122°32'0 0.0
2016-Sep-17 21:33N 47°35' W 122°32'0 0.0
2016-Sep-17 20:33N 47°35' W 122°32'0 0.0
2016-Sep-17 19:16N 47°35' W 122°32'0 0.0
2016-Sep-17 13:33N 47°35' W 122°32'0 0.0
2016-Sep-17 12:33N 47°35' W 122°32'0 0.0
2016-Sep-17 10:33N 47°35' W 122°32'0 0.0
2016-Sep-17 09:33N 47°35' W 122°32'0 0.1
2016-Sep-17 08:33N 47°34' W 122°32'8 8.1
2016-Sep-17 07:34N 47°26' W 122°31'17 8.5
2016-Sep-17 05:32N 47°11' W 122°43'8 8.1
2016-Sep-17 04:33N 47°09' W 122°54'  
Track history (hours):
 
Tides and Currents Weather Stations Pressure Air Temp Water Temp Dewpoint Dewpoint Depression Visibility Wind Speed Wind Dir Waves Ship Positions

F/V Harvestor

Owner: F/V HARVESTOR INC., EDMONDS, WA. More information available from US FCC via Universal Licensing System and Coast Guard Vessel Documentation Center.

Last reported at 2016-Sep-27 00:33 UTC. Time now 2016-Sep-27 01:58 UTC.
Position N 48°13' W 123°02'.

Length 40 m.

Type: Fishing. MMSI: 367083650.

Date/timePositionNaut miles runAvg speedWind from/ knotsBaromVisibWave heightAir tempDewpointWater temp
2016-Sep-27 00:33N 48°13' W 123°02'30 7.6
2016-Sep-26 20:34N 47°53' W 122°28'8 8.1
2016-Sep-26 19:33N 47°45' W 122°26'7 1.8
2016-Sep-26 15:33N 47°38' W 122°23'0 0.0
2016-Sep-26 13:34N 47°38' W 122°23'0 0.0
2016-Sep-26 11:34N 47°38' W 122°23'0 0.0
2016-Sep-26 08:34N 47°38' W 122°23'0 0.0
2016-Sep-26 02:34N 47°38' W 122°23'0 0.0
2016-Sep-26 01:34N 47°38' W 122°23'6 5.7
2016-Sep-26 00:34N 47°43' W 122°28'22 7.4
2016-Sep-25 21:33N 48°04' W 122°39'31 7.7
2016-Sep-25 17:34N 48°08' W 123°25'0 0.0
2016-Sep-25 16:34N 48°08' W 123°25'0 0.0
2016-Sep-25 15:34N 48°08' W 123°25'0 0.0
2016-Sep-25 14:34N 48°08' W 123°25'0 0.0
2016-Sep-25 12:34N 48°08' W 123°25'0 0.0
2016-Sep-25 11:33N 48°08' W 123°25'0 0.0
2016-Sep-25 10:34N 48°08' W 123°25'0 0.0
2016-Sep-25 09:34N 48°08' W 123°25'0 0.0
2016-Sep-25 07:34N 48°08' W 123°25'0 0.0
2016-Sep-25 04:34N 48°08' W 123°25'17 4.2
2016-Sep-25 00:33N 48°12' W 123°01'18 9.0
2016-Sep-24 22:33N 48°03' W 122°38'9 9.4
2016-Sep-24 21:34N 47°56' W 122°29'18 8.9
2016-Sep-24 19:34N 47°38' W 122°25'1 1.4
2016-Sep-24 18:33N 47°38' W 122°23'0 0.0
2016-Sep-24 17:33N 47°38' W 122°23'0 0.0
2016-Sep-24 16:34N 47°38' W 122°23'0 0.0
2016-Sep-24 14:34N 47°38' W 122°23'0 0.0
2016-Sep-24 12:33N 47°38' W 122°23'0 0.0
2016-Sep-24 10:33N 47°38' W 122°23'0 0.0
2016-Sep-24 09:33N 47°38' W 122°23'0 0.0
2016-Sep-24 03:34N 47°38' W 122°23'0 0.0
2016-Sep-24 02:33N 47°38' W 122°23'0 0.0
2016-Sep-24 01:33N 47°38' W 122°23'0 0.0
2016-Sep-24 00:34N 47°38' W 122°23'0 0.0
2016-Sep-23 19:33N 47°38' W 122°23'0 0.0
2016-Sep-23 17:33N 47°38' W 122°23'0 0.1
2016-Sep-23 16:33N 47°38' W 122°23'0 0.0
2016-Sep-23 15:33N 47°38' W 122°23'0 0.0
2016-Sep-23 13:34N 47°38' W 122°23'0 0.0
2016-Sep-23 09:34N 47°38' W 122°23'0 0.0
2016-Sep-23 06:34N 47°38' W 122°23'0 0.0
2016-Sep-23 04:34N 47°38' W 122°23'0 0.0
2016-Sep-23 03:33N 47°38' W 122°23'0 0.0
2016-Sep-23 02:34N 47°38' W 122°23'0 0.0
2016-Sep-23 01:33N 47°38' W 122°23'7 6.8
2016-Sep-23 00:34N 47°34' W 122°32'0 0.3
2016-Sep-22 23:34N 47°35' W 122°32'0 0.0
2016-Sep-22 20:34N 47°35' W 122°32'0 0.0
2016-Sep-22 12:34N 47°35' W 122°32'0 0.0
2016-Sep-22 04:34N 47°35' W 122°32'0 0.0
2016-Sep-22 03:33N 47°35' W 122°32'0 0.0
2016-Sep-22 00:34N 47°35' W 122°32'0 0.0
2016-Sep-21 23:34N 47°35' W 122°32'0 0.1
2016-Sep-21 22:34N 47°35' W 122°32'21 7.1
2016-Sep-21 19:33N 47°13' W 122°35'21 0.8
2016-Sep-20 17:34N 47°35' W 122°32'0 0.0
2016-Sep-20 14:34N 47°35' W 122°32'0 0.0
2016-Sep-20 13:34N 47°35' W 122°32'0 0.0
2016-Sep-20 10:34N 47°35' W 122°32'0 0.0
2016-Sep-20 08:33N 47°35' W 122°32'0 0.0
2016-Sep-20 07:34N 47°35' W 122°32'0 0.0
2016-Sep-20 06:34N 47°35' W 122°32'0 0.0
2016-Sep-20 02:34N 47°35' W 122°32'20 6.8
2016-Sep-19 23:34N 47°14' W 122°35'10 0.5
2016-Sep-19 00:25N 47°11' W 122°49'27 5.5
2016-Sep-18 19:33N 47°35' W 122°32'0 0.0
2016-Sep-18 15:33N 47°35' W 122°32'0 0.0
2016-Sep-18 14:33N 47°35' W 122°32'0 0.0
2016-Sep-18 10:33N 47°35' W 122°32'0 0.0
2016-Sep-18 09:33N 47°35' W 122°32'0 0.0
2016-Sep-18 02:33N 47°35' W 122°32'0 0.0
2016-Sep-18 01:33N 47°35' W 122°32'0 0.0
2016-Sep-18 00:33N 47°35' W 122°32'0 0.0
2016-Sep-17 22:33N 47°35' W 122°32'0 0.0
2016-Sep-17 21:33N 47°35' W 122°32'0 0.0
2016-Sep-17 20:33N 47°35' W 122°32'0 0.0
2016-Sep-17 19:16N 47°35' W 122°32'0 0.0
2016-Sep-17 13:33N 47°35' W 122°32'0 0.0
2016-Sep-17 12:33N 47°35' W 122°32'0 0.0
2016-Sep-17 10:33N 47°35' W 122°32'0 0.0
2016-Sep-17 09:33N 47°35' W 122°32'0 0.1
2016-Sep-17 08:33N 47°34' W 122°32'8 8.1
2016-Sep-17 07:34N 47°26' W 122°31'17 8.5
2016-Sep-17 05:32N 47°11' W 122°43'8 8.1
2016-Sep-17 04:33N 47°09' W 122°54'  

Dump ship's entire track history